Farmington, North Carolina
Current Conditions -  °F | °C
As of 9:15 PM on Friday 19 Dec 2014 (Local Time) from KEXX Reporting Station
Clear Clear  
Wind Chill: 40°   Ceiling: Unl
Heat Index: 40°   Visibility: 10mi
Dew Point: 28°   Wind: 3mph
Humidity: 63%   Direction: 20°NNE
Pressure: 30.17"   Gusts: NA
Location:  35.9339°N, 80.5455°W
Report Text: KEXX 200215Z AUTO 02003KT 10SM CLR 04/M02 A3017 RMK AO2 T00431021
Loading
Personal Weather Stations






























Interactive Weather Map New forecast layout! Learn more

10-Day Weather Forecast

Advertisements
Track Severe Weather on mobile